Terminal Aerodrome Forecast
Issued by NWS

Home | Current Version | Previous Version | Text Only | Print | Product List | Glossary On
Versions: 1 2 3 4 5 6 7 8 9 10 11 12 13 14 15 16 17 18
000
FTUS46 KLOX 030800 AAA
TAFLGB
TAF AMD
KLGB 030805Z 0308/0406 VRB03KT P6SM OVC014
     FM031800 VRB03KT P6SM OVC020
     FM032000 20006KT P6SM SKC
     FM032200 28012KT P6SM SKC
     FM040500 VRB03KT P6SM OVC015=

USA.gov is the U.S. government's official web portal to all federal, state and local government web resources and services.